Terminal Aerodrome Forecast
Issued by NWS

Home | Current Version | Previous Version | Text Only | Print | Product List | Glossary On
Versions: 1 2 3 4 5 6 7 8 9 10 11 12 13 14 15 16 17 18 19 20 21 22 23 24 25 26 27 28 29 30 31 32 33 34 35 36 37 38 39 40 41 42 43 44 45 46 47 48 49 50
597
FTUS44 KHGX 201456 AAB
TAFIAH
TAF AMD
KIAH 201456Z 2015/2118 10004KT 2SM BR VCSH OVC004
      TEMPO 2015/2016 1/4SM FG VV001
     FM201600 18007KT 5SM BR VCSH BKN007 OVC010
     FM201800 17009G18KT P6SM OVC015
     FM210000 16010KT 6SM BR OVC007
     FM210300 16008KT 2SM BR VCSH OVC005
     FM211500 16009KT 5SM BR VCSH OVC010=

USA.gov is the U.S. government's official web portal to all federal, state and local government web resources and services.